Omak, Washington
Current Conditions -  °F | °C
As of 9:35 PM on Wednesday 17 Dec 2014 (Local Time) from KOMK Reporting Station
Haze Haze  
Wind Chill: 33°   Ceiling: 1900
Heat Index: 33°   Visibility: 1.5mi
Dew Point: 32°   Wind: 0mph
Humidity: 96%   Direction: NA
Pressure: 29.97"   Gusts: NA
Location:  48.41°N, 119.53°W
Report Text: KOMK 180535Z AUTO 00000KT 1 1/2SM BR FEW013 OVC019 01/00 A2997 RMK AO2 T00060000
Loading
Personal Weather Stations






























Interactive Weather Map New forecast layout! Learn more

10-Day Weather Forecast

Advertisements
Track Severe Weather on mobile